sensor_id;sensor_type;location;lat;lon;timestamp;P1;durP1;ratioP1;P2;durP2;ratioP2
67049;SDS011;53955;52.442;13.284;2022-07-23T00:00:18;7.22;;;3.60;;
67049;SDS011;53955;52.442;13.284;2022-07-23T00:02:46;4.82;;;3.40;;
67049;SDS011;53955;52.442;13.284;2022-07-23T00:05:12;7.57;;;3.80;;
67049;SDS011;53955;52.442;13.284;2022-07-23T00:07:39;5.88;;;3.55;;
67049;SDS011;53955;52.442;13.284;2022-07-23T00:10:06;6.18;;;3.88;;
67049;SDS011;53955;52.442;13.284;2022-07-23T00:12:34;5.90;;;3.60;;
67049;SDS011;53955;52.442;13.284;2022-07-23T00:15:00;6.53;;;3.70;;
67049;SDS011;53955;52.442;13.284;2022-07-23T00:17:29;6.18;;;3.78;;
67049;SDS011;53955;52.442;13.284;2022-07-23T00:19:57;5.35;;;3.25;;
67049;SDS011;53955;52.442;13.284;2022-07-23T00:22:23;7.88;;;3.90;;
67049;SDS011;53955;52.442;13.284;2022-07-23T00:24:50;7.85;;;3.97;;
67049;SDS011;53955;52.442;13.284;2022-07-23T00:27:16;5.50;;;3.72;;
67049;SDS011;53955;52.442;13.284;2022-07-23T00:29:43;6.60;;;4.38;;
67049;SDS011;53955;52.442;13.284;2022-07-23T00:32:09;5.82;;;4.32;;
67049;SDS011;53955;52.442;13.284;2022-07-23T00:34:37;7.35;;;4.15;;
67049;SDS011;53955;52.442;13.284;2022-07-23T00:37:04;5.70;;;3.97;;
67049;SDS011;53955;52.442;13.284;2022-07-23T00:39:30;5.82;;;4.05;;
67049;SDS011;53955;52.442;13.284;2022-07-23T00:41:57;4.45;;;3.30;;
67049;SDS011;53955;52.442;13.284;2022-07-23T00:44:24;6.47;;;3.60;;
67049;SDS011;53955;52.442;13.284;2022-07-23T00:46:53;8.90;;;3.70;;
67049;SDS011;53955;52.442;13.284;2022-07-23T00:49:22;5.20;;;3.70;;
67049;SDS011;53955;52.442;13.284;2022-07-23T00:51:51;6.00;;;3.60;;
67049;SDS011;53955;52.442;13.284;2022-07-23T00:54:19;5.88;;;3.33;;
67049;SDS011;53955;52.442;13.284;2022-07-23T00:56:48;5.78;;;3.80;;
67049;SDS011;53955;52.442;13.284;2022-07-23T00:59:15;5.82;;;3.67;;
67049;SDS011;53955;52.442;13.284;2022-07-23T01:01:42;6.38;;;4.10;;
67049;SDS011;53955;52.442;13.284;2022-07-23T01:04:10;7.03;;;3.53;;
67049;SDS011;53955;52.442;13.284;2022-07-23T01:06:37;7.38;;;3.80;;
67049;SDS011;53955;52.442;13.284;2022-07-23T01:09:06;4.13;;;3.08;;
67049;SDS011;53955;52.442;13.284;2022-07-23T01:11:33;8.38;;;3.70;;
67049;SDS011;53955;52.442;13.284;2022-07-23T01:14:07;7.88;;;3.40;;
67049;SDS011;53955;52.442;13.284;2022-07-23T01:16:34;5.13;;;3.40;;
67049;SDS011;53955;52.442;13.284;2022-07-23T01:19:01;7.22;;;3.75;;
67049;SDS011;53955;52.442;13.284;2022-07-23T01:21:28;6.15;;;3.80;;
67049;SDS011;53955;52.442;13.284;2022-07-23T01:23:57;4.60;;;3.25;;
67049;SDS011;53955;52.442;13.284;2022-07-23T01:26:23;5.43;;;3.88;;
67049;SDS011;53955;52.442;13.284;2022-07-23T01:28:50;6.15;;;3.22;;
67049;SDS011;53955;52.442;13.284;2022-07-23T01:31:16;5.82;;;3.65;;
67049;SDS011;53955;52.442;13.284;2022-07-23T01:33:44;5.10;;;3.17;;
67049;SDS011;53955;52.442;13.284;2022-07-23T01:36:10;6.22;;;3.72;;
67049;SDS011;53955;52.442;13.284;2022-07-23T01:38:37;5.40;;;3.65;;
67049;SDS011;53955;52.442;13.284;2022-07-23T01:41:05;4.18;;;3.00;;
67049;SDS011;53955;52.442;13.284;2022-07-23T01:43:31;5.75;;;3.63;;
67049;SDS011;53955;52.442;13.284;2022-07-23T01:45:58;6.20;;;3.65;;
67049;SDS011;53955;52.442;13.284;2022-07-23T01:48:24;5.85;;;3.75;;
67049;SDS011;53955;52.442;13.284;2022-07-23T01:50:51;7.63;;;3.70;;
67049;SDS011;53955;52.442;13.284;2022-07-23T01:53:18;6.05;;;3.63;;
67049;SDS011;53955;52.442;13.284;2022-07-23T01:55:44;6.75;;;3.70;;
67049;SDS011;53955;52.442;13.284;2022-07-23T01:58:12;7.05;;;3.47;;
67049;SDS011;53955;52.442;13.284;2022-07-23T02:00:39;6.32;;;3.65;;
67049;SDS011;53955;52.442;13.284;2022-07-23T02:03:05;5.85;;;3.40;;
67049;SDS011;53955;52.442;13.284;2022-07-23T02:05:32;6.85;;;3.30;;
67049;SDS011;53955;52.442;13.284;2022-07-23T02:07:59;5.68;;;3.90;;
67049;SDS011;53955;52.442;13.284;2022-07-23T02:10:26;6.30;;;3.55;;
67049;SDS011;53955;52.442;13.284;2022-07-23T02:12:53;5.68;;;3.88;;
67049;SDS011;53955;52.442;13.284;2022-07-23T02:15:21;7.53;;;3.58;;
67049;SDS011;53955;52.442;13.284;2022-07-23T02:17:48;8.13;;;3.67;;
67049;SDS011;53955;52.442;13.284;2022-07-23T02:20:15;7.43;;;4.00;;
67049;SDS011;53955;52.442;13.284;2022-07-23T02:22:41;4.93;;;3.30;;
67049;SDS011;53955;52.442;13.284;2022-07-23T02:25:08;5.97;;;3.35;;
67049;SDS011;53955;52.442;13.284;2022-07-23T02:27:35;5.38;;;3.60;;
67049;SDS011;53955;52.442;13.284;2022-07-23T02:30:02;9.02;;;3.67;;
67049;SDS011;53955;52.442;13.284;2022-07-23T02:32:31;5.72;;;3.65;;
67049;SDS011;53955;52.442;13.284;2022-07-23T02:34:57;9.25;;;4.13;;
67049;SDS011;53955;52.442;13.284;2022-07-23T02:37:24;5.35;;;3.45;;
67049;SDS011;53955;52.442;13.284;2022-07-23T02:39:50;6.35;;;3.85;;
67049;SDS011;53955;52.442;13.284;2022-07-23T02:42:17;5.10;;;3.70;;
67049;SDS011;53955;52.442;13.284;2022-07-23T02:44:44;5.28;;;3.53;;
67049;SDS011;53955;52.442;13.284;2022-07-23T02:47:10;7.20;;;3.80;;
67049;SDS011;53955;52.442;13.284;2022-07-23T02:49:38;6.55;;;4.10;;
67049;SDS011;53955;52.442;13.284;2022-07-23T02:52:05;5.75;;;3.70;;
67049;SDS011;53955;52.442;13.284;2022-07-23T02:54:31;5.20;;;3.83;;
67049;SDS011;53955;52.442;13.284;2022-07-23T02:56:58;6.95;;;3.65;;
67049;SDS011;53955;52.442;13.284;2022-07-23T02:59:24;5.22;;;3.53;;
67049;SDS011;53955;52.442;13.284;2022-07-23T03:01:51;4.88;;;3.60;;
67049;SDS011;53955;52.442;13.284;2022-07-23T03:04:18;6.40;;;3.75;;
67049;SDS011;53955;52.442;13.284;2022-07-23T03:06:45;6.20;;;3.95;;
67049;SDS011;53955;52.442;13.284;2022-07-23T03:09:12;8.32;;;4.10;;
67049;SDS011;53955;52.442;13.284;2022-07-23T03:11:39;6.85;;;3.75;;
67049;SDS011;53955;52.442;13.284;2022-07-23T03:14:05;7.72;;;3.55;;
67049;SDS011;53955;52.442;13.284;2022-07-23T03:16:32;7.93;;;3.75;;
67049;SDS011;53955;52.442;13.284;2022-07-23T03:18:59;4.80;;;3.70;;
67049;SDS011;53955;52.442;13.284;2022-07-23T03:21:25;7.35;;;3.70;;
67049;SDS011;53955;52.442;13.284;2022-07-23T03:23:53;5.10;;;3.22;;
67049;SDS011;53955;52.442;13.284;2022-07-23T03:26:20;5.88;;;3.10;;
67049;SDS011;53955;52.442;13.284;2022-07-23T03:28:50;5.50;;;3.58;;
67049;SDS011;53955;52.442;13.284;2022-07-23T03:31:16;4.90;;;3.30;;
67049;SDS011;53955;52.442;13.284;2022-07-23T03:33:43;7.32;;;3.58;;
67049;SDS011;53955;52.442;13.284;2022-07-23T03:36:09;5.38;;;3.20;;
67049;SDS011;53955;52.442;13.284;2022-07-23T03:38:36;6.50;;;3.38;;
67049;SDS011;53955;52.442;13.284;2022-07-23T03:41:04;7.07;;;3.90;;
67049;SDS011;53955;52.442;13.284;2022-07-23T03:43:30;5.28;;;3.15;;
67049;SDS011;53955;52.442;13.284;2022-07-23T03:45:57;6.07;;;3.00;;
67049;SDS011;53955;52.442;13.284;2022-07-23T03:48:23;7.30;;;3.47;;
67049;SDS011;53955;52.442;13.284;2022-07-23T03:50:50;6.65;;;2.97;;
67049;SDS011;53955;52.442;13.284;2022-07-23T03:53:16;6.38;;;3.30;;
67049;SDS011;53955;52.442;13.284;2022-07-23T03:55:43;4.60;;;2.90;;
67049;SDS011;53955;52.442;13.284;2022-07-23T03:58:11;6.82;;;3.40;;
67049;SDS011;53955;52.442;13.284;2022-07-23T04:00:38;9.75;;;3.13;;
67049;SDS011;53955;52.442;13.284;2022-07-23T04:03:04;5.00;;;3.05;;
67049;SDS011;53955;52.442;13.284;2022-07-23T04:05:31;4.50;;;2.47;;
67049;SDS011;53955;52.442;13.284;2022-07-23T04:07:57;3.90;;;2.67;;
67049;SDS011;53955;52.442;13.284;2022-07-23T04:10:24;6.65;;;2.55;;
67049;SDS011;53955;52.442;13.284;2022-07-23T04:12:50;5.47;;;2.47;;
67049;SDS011;53955;52.442;13.284;2022-07-23T04:15:18;5.55;;;2.33;;
67049;SDS011;53955;52.442;13.284;2022-07-23T04:17:45;3.95;;;2.45;;
67049;SDS011;53955;52.442;13.284;2022-07-23T04:20:12;7.00;;;2.63;;
67049;SDS011;53955;52.442;13.284;2022-07-23T04:22:38;3.47;;;2.50;;
67049;SDS011;53955;52.442;13.284;2022-07-23T04:25:05;5.53;;;1.90;;
67049;SDS011;53955;52.442;13.284;2022-07-23T04:27:32;4.13;;;2.20;;
67049;SDS011;53955;52.442;13.284;2022-07-23T04:29:59;4.60;;;2.40;;
67049;SDS011;53955;52.442;13.284;2022-07-23T04:32:26;7.05;;;2.40;;
67049;SDS011;53955;52.442;13.284;2022-07-23T04:34:53;7.72;;;2.42;;
67049;SDS011;53955;52.442;13.284;2022-07-23T04:37:19;4.25;;;2.40;;
67049;SDS011;53955;52.442;13.284;2022-07-23T04:39:46;6.97;;;2.97;;
67049;SDS011;53955;52.442;13.284;2022-07-23T04:42:12;3.85;;;2.10;;
67049;SDS011;53955;52.442;13.284;2022-07-23T04:44:39;3.97;;;2.03;;
67049;SDS011;53955;52.442;13.284;2022-07-23T04:47:06;3.90;;;2.75;;
67049;SDS011;53955;52.442;13.284;2022-07-23T04:49:33;7.25;;;2.70;;
67049;SDS011;53955;52.442;13.284;2022-07-23T04:52:00;5.13;;;2.28;;
67049;SDS011;53955;52.442;13.284;2022-07-23T04:54:26;6.43;;;2.60;;
67049;SDS011;53955;52.442;13.284;2022-07-23T04:56:53;6.90;;;2.90;;
67049;SDS011;53955;52.442;13.284;2022-07-23T04:59:20;8.20;;;2.73;;
67049;SDS011;53955;52.442;13.284;2022-07-23T05:01:47;9.18;;;3.03;;
67049;SDS011;53955;52.442;13.284;2022-07-23T05:04:13;5.82;;;2.50;;
67049;SDS011;53955;52.442;13.284;2022-07-23T05:06:41;3.25;;;2.17;;
67049;SDS011;53955;52.442;13.284;2022-07-23T05:09:08;4.53;;;2.33;;
67049;SDS011;53955;52.442;13.284;2022-07-23T05:11:34;4.28;;;2.55;;
67049;SDS011;53955;52.442;13.284;2022-07-23T05:14:01;3.88;;;1.95;;
67049;SDS011;53955;52.442;13.284;2022-07-23T05:16:27;9.25;;;2.85;;
67049;SDS011;53955;52.442;13.284;2022-07-23T05:18:54;4.82;;;2.25;;
67049;SDS011;53955;52.442;13.284;2022-07-23T05:21:20;3.60;;;2.28;;
67049;SDS011;53955;52.442;13.284;2022-07-23T05:23:48;5.97;;;2.50;;
67049;SDS011;53955;52.442;13.284;2022-07-23T05:26:15;5.00;;;2.20;;
67049;SDS011;53955;52.442;13.284;2022-07-23T05:28:41;5.03;;;2.33;;
67049;SDS011;53955;52.442;13.284;2022-07-23T05:31:08;3.28;;;1.95;;
67049;SDS011;53955;52.442;13.284;2022-07-23T05:33:34;3.20;;;2.42;;
67049;SDS011;53955;52.442;13.284;2022-07-23T05:36:01;3.47;;;2.23;;
67049;SDS011;53955;52.442;13.284;2022-07-23T05:38:28;7.82;;;2.38;;
67049;SDS011;53955;52.442;13.284;2022-07-23T05:40:57;7.72;;;2.22;;
67049;SDS011;53955;52.442;13.284;2022-07-23T05:43:23;5.93;;;2.20;;
67049;SDS011;53955;52.442;13.284;2022-07-23T05:45:50;4.65;;;2.40;;
67049;SDS011;53955;52.442;13.284;2022-07-23T05:48:16;5.07;;;1.80;;
67049;SDS011;53955;52.442;13.284;2022-07-23T05:50:43;3.80;;;2.10;;
67049;SDS011;53955;52.442;13.284;2022-07-23T05:53:10;4.40;;;2.20;;
67049;SDS011;53955;52.442;13.284;2022-07-23T05:55:36;6.25;;;1.95;;
67049;SDS011;53955;52.442;13.284;2022-07-23T05:58:04;3.95;;;2.03;;
67049;SDS011;53955;52.442;13.284;2022-07-23T06:00:31;7.60;;;2.00;;
67049;SDS011;53955;52.442;13.284;2022-07-23T06:02:58;3.65;;;1.80;;
67049;SDS011;53955;52.442;13.284;2022-07-23T06:05:24;3.38;;;1.70;;
67049;SDS011;53955;52.442;13.284;2022-07-23T06:07:51;3.72;;;1.80;;
67049;SDS011;53955;52.442;13.284;2022-07-23T06:10:18;4.43;;;1.98;;
67049;SDS011;53955;52.442;13.284;2022-07-23T06:12:44;5.75;;;2.30;;
67049;SDS011;53955;52.442;13.284;2022-07-23T06:15:12;6.70;;;2.10;;
67049;SDS011;53955;52.442;13.284;2022-07-23T06:17:39;4.70;;;1.70;;
67049;SDS011;53955;52.442;13.284;2022-07-23T06:20:06;3.85;;;2.10;;
67049;SDS011;53955;52.442;13.284;2022-07-23T06:22:34;6.30;;;2.35;;
67049;SDS011;53955;52.442;13.284;2022-07-23T06:25:01;2.70;;;1.80;;
67049;SDS011;53955;52.442;13.284;2022-07-23T06:27:27;4.55;;;2.30;;
67049;SDS011;53955;52.442;13.284;2022-07-23T06:29:54;5.68;;;2.40;;
67049;SDS011;53955;52.442;13.284;2022-07-23T06:32:22;6.13;;;2.30;;
67049;SDS011;53955;52.442;13.284;2022-07-23T06:34:49;5.32;;;2.05;;
67049;SDS011;53955;52.442;13.284;2022-07-23T06:37:15;6.05;;;2.35;;
67049;SDS011;53955;52.442;13.284;2022-07-23T06:39:42;4.15;;;2.38;;
67049;SDS011;53955;52.442;13.284;2022-07-23T06:42:08;3.33;;;2.17;;
67049;SDS011;53955;52.442;13.284;2022-07-23T06:44:37;3.90;;;2.45;;
67049;SDS011;53955;52.442;13.284;2022-07-23T06:47:03;5.35;;;2.17;;
67049;SDS011;53955;52.442;13.284;2022-07-23T06:49:31;3.92;;;2.30;;
67049;SDS011;53955;52.442;13.284;2022-07-23T06:51:58;4.93;;;2.28;;
67049;SDS011;53955;52.442;13.284;2022-07-23T06:54:24;6.53;;;2.80;;
67049;SDS011;53955;52.442;13.284;2022-07-23T06:56:51;6.72;;;2.50;;
67049;SDS011;53955;52.442;13.284;2022-07-23T06:59:17;8.38;;;2.83;;
67049;SDS011;53955;52.442;13.284;2022-07-23T07:01:44;4.53;;;2.42;;
67049;SDS011;53955;52.442;13.284;2022-07-23T07:04:11;4.97;;;2.20;;
67049;SDS011;53955;52.442;13.284;2022-07-23T07:06:38;4.72;;;2.30;;
67049;SDS011;53955;52.442;13.284;2022-07-23T07:09:05;6.80;;;2.88;;
67049;SDS011;53955;52.442;13.284;2022-07-23T07:11:32;4.90;;;2.20;;
67049;SDS011;53955;52.442;13.284;2022-07-23T07:13:58;5.93;;;2.58;;
67049;SDS011;53955;52.442;13.284;2022-07-23T07:16:25;6.20;;;2.35;;
67049;SDS011;53955;52.442;13.284;2022-07-23T07:18:51;5.15;;;2.60;;
67049;SDS011;53955;52.442;13.284;2022-07-23T07:21:18;5.05;;;2.38;;
67049;SDS011;53955;52.442;13.284;2022-07-23T07:23:46;3.97;;;2.22;;
67049;SDS011;53955;52.442;13.284;2022-07-23T07:26:12;3.67;;;2.47;;
67049;SDS011;53955;52.442;13.284;2022-07-23T07:28:39;5.93;;;2.50;;
67049;SDS011;53955;52.442;13.284;2022-07-23T07:31:06;4.22;;;2.60;;
67049;SDS011;53955;52.442;13.284;2022-07-23T07:33:32;6.25;;;2.42;;
67049;SDS011;53955;52.442;13.284;2022-07-23T07:35:59;6.97;;;2.97;;
67049;SDS011;53955;52.442;13.284;2022-07-23T07:38:26;4.82;;;2.85;;
67049;SDS011;53955;52.442;13.284;2022-07-23T07:40:54;8.48;;;2.97;;
67049;SDS011;53955;52.442;13.284;2022-07-23T07:43:20;5.20;;;2.60;;
67049;SDS011;53955;52.442;13.284;2022-07-23T07:45:47;4.63;;;2.50;;
67049;SDS011;53955;52.442;13.284;2022-07-23T07:48:14;7.43;;;3.25;;
67049;SDS011;53955;52.442;13.284;2022-07-23T07:50:40;6.13;;;2.40;;
67049;SDS011;53955;52.442;13.284;2022-07-23T07:53:07;4.30;;;2.35;;
67049;SDS011;53955;52.442;13.284;2022-07-23T07:55:34;5.53;;;3.08;;
67049;SDS011;53955;52.442;13.284;2022-07-23T07:58:02;5.05;;;2.80;;
67049;SDS011;53955;52.442;13.284;2022-07-23T08:00:28;4.05;;;2.80;;
67049;SDS011;53955;52.442;13.284;2022-07-23T08:02:55;4.75;;;2.88;;
67049;SDS011;53955;52.442;13.284;2022-07-23T08:05:22;4.43;;;2.45;;
67049;SDS011;53955;52.442;13.284;2022-07-23T08:07:51;5.22;;;3.05;;
67049;SDS011;53955;52.442;13.284;2022-07-23T08:10:18;5.30;;;2.97;;
67049;SDS011;53955;52.442;13.284;2022-07-23T08:12:46;5.93;;;3.23;;
67049;SDS011;53955;52.442;13.284;2022-07-23T08:15:18;7.30;;;3.20;;
67049;SDS011;53955;52.442;13.284;2022-07-23T08:17:45;4.93;;;2.80;;
67049;SDS011;53955;52.442;13.284;2022-07-23T08:20:14;6.47;;;3.10;;
67049;SDS011;53955;52.442;13.284;2022-07-23T08:22:43;5.45;;;3.47;;
67049;SDS011;53955;52.442;13.284;2022-07-23T08:25:10;5.55;;;3.20;;
67049;SDS011;53955;52.442;13.284;2022-07-23T08:27:37;8.18;;;3.00;;
67049;SDS011;53955;52.442;13.284;2022-07-23T08:30:04;3.95;;;2.42;;
67049;SDS011;53955;52.442;13.284;2022-07-23T08:32:32;3.63;;;2.38;;
67049;SDS011;53955;52.442;13.284;2022-07-23T08:34:59;5.65;;;2.53;;
67049;SDS011;53955;52.442;13.284;2022-07-23T08:37:26;4.35;;;2.08;;
67049;SDS011;53955;52.442;13.284;2022-07-23T08:39:52;8.70;;;2.58;;
67049;SDS011;53955;52.442;13.284;2022-07-23T08:42:21;4.45;;;2.10;;
67049;SDS011;53955;52.442;13.284;2022-07-23T08:44:47;7.00;;;2.63;;
67049;SDS011;53955;52.442;13.284;2022-07-23T08:47:14;6.18;;;2.78;;
67049;SDS011;53955;52.442;13.284;2022-07-23T08:49:43;5.22;;;2.70;;
67049;SDS011;53955;52.442;13.284;2022-07-23T08:52:11;5.28;;;2.30;;
67049;SDS011;53955;52.442;13.284;2022-07-23T08:54:37;6.53;;;2.13;;
67049;SDS011;53955;52.442;13.284;2022-07-23T08:57:04;4.85;;;2.45;;
67049;SDS011;53955;52.442;13.284;2022-07-23T08:59:31;4.85;;;2.67;;
67049;SDS011;53955;52.442;13.284;2022-07-23T09:01:58;5.82;;;2.85;;
67049;SDS011;53955;52.442;13.284;2022-07-23T09:04:25;4.22;;;2.42;;
67049;SDS011;53955;52.442;13.284;2022-07-23T09:06:53;5.68;;;3.10;;
67049;SDS011;53955;52.442;13.284;2022-07-23T09:09:21;4.07;;;2.67;;
67049;SDS011;53955;52.442;13.284;2022-07-23T09:11:49;5.22;;;2.45;;
67049;SDS011;53955;52.442;13.284;2022-07-23T09:14:35;5.25;;;2.50;;
67049;SDS011;53955;52.442;13.284;2022-07-23T09:17:07;6.43;;;2.58;;
67049;SDS011;53955;52.442;13.284;2022-07-23T09:19:38;7.78;;;3.05;;
67049;SDS011;53955;52.442;13.284;2022-07-23T09:22:20;8.02;;;2.58;;
67049;SDS011;53955;52.442;13.284;2022-07-23T09:25:07;5.43;;;2.45;;
67049;SDS011;53955;52.442;13.284;2022-07-23T09:30:28;9.23;;;3.00;;
67049;SDS011;53955;52.442;13.284;2022-07-23T09:33:03;5.28;;;2.65;;
67049;SDS011;53955;52.442;13.284;2022-07-23T09:35:47;3.55;;;2.30;;
67049;SDS011;53955;52.442;13.284;2022-07-23T09:38:16;5.22;;;2.50;;
67049;SDS011;53955;52.442;13.284;2022-07-23T09:40:44;6.72;;;2.70;;
67049;SDS011;53955;52.442;13.284;2022-07-23T09:43:12;5.78;;;2.30;;
67049;SDS011;53955;52.442;13.284;2022-07-23T09:45:51;6.93;;;2.17;;
67049;SDS011;53955;52.442;13.284;2022-07-23T09:48:17;5.90;;;2.97;;
67049;SDS011;53955;52.442;13.284;2022-07-23T09:50:44;6.22;;;2.75;;
67049;SDS011;53955;52.442;13.284;2022-07-23T09:53:11;6.20;;;2.60;;
67049;SDS011;53955;52.442;13.284;2022-07-23T09:55:51;4.85;;;2.70;;
67049;SDS011;53955;52.442;13.284;2022-07-23T09:58:23;4.28;;;2.40;;
67049;SDS011;53955;52.442;13.284;2022-07-23T10:00:52;4.47;;;2.20;;
67049;SDS011;53955;52.442;13.284;2022-07-23T10:03:19;6.50;;;2.33;;
67049;SDS011;53955;52.442;13.284;2022-07-23T10:05:46;8.07;;;2.33;;
67049;SDS011;53955;52.442;13.284;2022-07-23T10:08:14;3.80;;;2.15;;
67049;SDS011;53955;52.442;13.284;2022-07-23T10:10:46;6.82;;;2.30;;
67049;SDS011;53955;52.442;13.284;2022-07-23T10:13:14;7.53;;;2.78;;
67049;SDS011;53955;52.442;13.284;2022-07-23T10:16:00;7.35;;;2.72;;
67049;SDS011;53955;52.442;13.284;2022-07-23T10:18:28;3.60;;;2.22;;
67049;SDS011;53955;52.442;13.284;2022-07-23T10:20:56;5.97;;;2.80;;
67049;SDS011;53955;52.442;13.284;2022-07-23T10:23:24;7.47;;;2.55;;
67049;SDS011;53955;52.442;13.284;2022-07-23T10:25:59;4.53;;;2.38;;
67049;SDS011;53955;52.442;13.284;2022-07-23T10:28:41;4.85;;;2.35;;
67049;SDS011;53955;52.442;13.284;2022-07-23T10:31:19;5.95;;;2.63;;
67049;SDS011;53955;52.442;13.284;2022-07-23T10:33:56;6.28;;;2.15;;
67049;SDS011;53955;52.442;13.284;2022-07-23T10:36:29;5.10;;;2.53;;
67049;SDS011;53955;52.442;13.284;2022-07-23T10:39:04;6.65;;;3.53;;
67049;SDS011;53955;52.442;13.284;2022-07-23T10:41:34;7.43;;;2.90;;
67049;SDS011;53955;52.442;13.284;2022-07-23T10:44:07;6.75;;;2.90;;
67049;SDS011;53955;52.442;13.284;2022-07-23T10:46:34;5.50;;;3.00;;
67049;SDS011;53955;52.442;13.284;2022-07-23T10:49:21;6.82;;;2.47;;
67049;SDS011;53955;52.442;13.284;2022-07-23T10:54:44;5.82;;;2.35;;
67049;SDS011;53955;52.442;13.284;2022-07-23T10:57:14;8.98;;;2.78;;
67049;SDS011;53955;52.442;13.284;2022-07-23T11:02:51;6.43;;;2.78;;
67049;SDS011;53955;52.442;13.284;2022-07-23T11:05:20;10.15;;;2.88;;
67049;SDS011;53955;52.442;13.284;2022-07-23T11:10:46;5.05;;;2.35;;
67049;SDS011;53955;52.442;13.284;2022-07-23T11:16:14;4.10;;;2.33;;
67049;SDS011;53955;52.442;13.284;2022-07-23T11:18:59;7.60;;;2.22;;
67049;SDS011;53955;52.442;13.284;2022-07-23T11:21:39;4.03;;;2.33;;
67049;SDS011;53955;52.442;13.284;2022-07-23T11:24:11;4.00;;;2.20;;
67049;SDS011;53955;52.442;13.284;2022-07-23T11:29:46;3.15;;;1.85;;
67049;SDS011;53955;52.442;13.284;2022-07-23T11:35:20;4.00;;;2.50;;
67049;SDS011;53955;52.442;13.284;2022-07-23T11:37:48;4.38;;;2.60;;
67049;SDS011;53955;52.442;13.284;2022-07-23T11:40:19;3.85;;;2.20;;
67049;SDS011;53955;52.442;13.284;2022-07-23T11:42:51;6.10;;;2.95;;
67049;SDS011;53955;52.442;13.284;2022-07-23T11:45:20;5.30;;;2.60;;
67049;SDS011;53955;52.442;13.284;2022-07-23T11:47:47;4.38;;;2.42;;
67049;SDS011;53955;52.442;13.284;2022-07-23T11:50:13;3.60;;;2.20;;
67049;SDS011;53955;52.442;13.284;2022-07-23T11:52:40;5.45;;;2.00;;
67049;SDS011;53955;52.442;13.284;2022-07-23T11:55:08;4.43;;;2.17;;
67049;SDS011;53955;52.442;13.284;2022-07-23T11:57:36;4.32;;;2.17;;
67049;SDS011;53955;52.442;13.284;2022-07-23T12:00:05;4.78;;;2.30;;
67049;SDS011;53955;52.442;13.284;2022-07-23T12:02:36;5.22;;;2.40;;
67049;SDS011;53955;52.442;13.284;2022-07-23T12:05:04;3.75;;;2.30;;
67049;SDS011;53955;52.442;13.284;2022-07-23T12:07:32;3.83;;;2.58;;
67049;SDS011;53955;52.442;13.284;2022-07-23T12:10:00;6.90;;;2.50;;
67049;SDS011;53955;52.442;13.284;2022-07-23T12:12:34;3.85;;;2.30;;
67049;SDS011;53955;52.442;13.284;2022-07-23T12:15:02;4.47;;;2.30;;
67049;SDS011;53955;52.442;13.284;2022-07-23T12:17:31;6.18;;;2.70;;
67049;SDS011;53955;52.442;13.284;2022-07-23T12:20:00;4.20;;;2.60;;
67049;SDS011;53955;52.442;13.284;2022-07-23T12:22:33;6.82;;;2.50;;
67049;SDS011;53955;52.442;13.284;2022-07-23T12:25:02;4.40;;;2.20;;
67049;SDS011;53955;52.442;13.284;2022-07-23T12:27:30;5.13;;;2.65;;
67049;SDS011;53955;52.442;13.284;2022-07-23T12:29:57;7.25;;;3.15;;
67049;SDS011;53955;52.442;13.284;2022-07-23T12:32:25;4.60;;;3.13;;
67049;SDS011;53955;52.442;13.284;2022-07-23T12:35:03;4.93;;;2.60;;
67049;SDS011;53955;52.442;13.284;2022-07-23T12:37:31;5.37;;;2.90;;
67049;SDS011;53955;52.442;13.284;2022-07-23T12:39:58;3.70;;;2.60;;
67049;SDS011;53955;52.442;13.284;2022-07-23T12:42:45;3.40;;;2.40;;
67049;SDS011;53955;52.442;13.284;2022-07-23T12:45:12;4.93;;;2.60;;
67049;SDS011;53955;52.442;13.284;2022-07-23T12:47:51;3.85;;;2.88;;
67049;SDS011;53955;52.442;13.284;2022-07-23T12:50:31;4.82;;;2.58;;
67049;SDS011;53955;52.442;13.284;2022-07-23T12:53:09;4.90;;;2.50;;
67049;SDS011;53955;52.442;13.284;2022-07-23T12:55:38;4.22;;;2.90;;
67049;SDS011;53955;52.442;13.284;2022-07-23T12:58:06;4.07;;;2.80;;
67049;SDS011;53955;52.442;13.284;2022-07-23T13:00:58;4.93;;;2.80;;
67049;SDS011;53955;52.442;13.284;2022-07-23T13:03:34;3.90;;;2.53;;
67049;SDS011;53955;52.442;13.284;2022-07-23T13:06:05;5.10;;;2.33;;
67049;SDS011;53955;52.442;13.284;2022-07-23T13:08:34;3.80;;;2.50;;
67049;SDS011;53955;52.442;13.284;2022-07-23T13:11:02;5.72;;;2.60;;
67049;SDS011;53955;52.442;13.284;2022-07-23T13:13:31;4.47;;;2.85;;
67049;SDS011;53955;52.442;13.284;2022-07-23T13:15:59;6.07;;;2.58;;
67049;SDS011;53955;52.442;13.284;2022-07-23T13:18:26;4.72;;;3.03;;
67049;SDS011;53955;52.442;13.284;2022-07-23T13:20:53;3.45;;;2.55;;
67049;SDS011;53955;52.442;13.284;2022-07-23T13:23:22;4.38;;;2.30;;
67049;SDS011;53955;52.442;13.284;2022-07-23T13:25:49;4.72;;;2.67;;
67049;SDS011;53955;52.442;13.284;2022-07-23T13:28:17;3.58;;;2.50;;
67049;SDS011;53955;52.442;13.284;2022-07-23T13:30:45;4.00;;;2.90;;
67049;SDS011;53955;52.442;13.284;2022-07-23T13:33:14;3.55;;;2.55;;
67049;SDS011;53955;52.442;13.284;2022-07-23T13:35:41;4.93;;;2.92;;
67049;SDS011;53955;52.442;13.284;2022-07-23T13:38:08;4.72;;;2.50;;
67049;SDS011;53955;52.442;13.284;2022-07-23T13:40:37;3.72;;;2.55;;
67049;SDS011;53955;52.442;13.284;2022-07-23T13:43:07;5.90;;;2.50;;
67049;SDS011;53955;52.442;13.284;2022-07-23T13:45:34;3.42;;;2.53;;
67049;SDS011;53955;52.442;13.284;2022-07-23T13:48:01;4.00;;;2.20;;
67049;SDS011;53955;52.442;13.284;2022-07-23T13:50:28;3.90;;;2.03;;
67049;SDS011;53955;52.442;13.284;2022-07-23T13:52:55;3.25;;;2.28;;
67049;SDS011;53955;52.442;13.284;2022-07-23T13:55:21;5.45;;;2.50;;
67049;SDS011;53955;52.442;13.284;2022-07-23T13:57:49;3.70;;;2.40;;
67049;SDS011;53955;52.442;13.284;2022-07-23T14:00:16;3.47;;;2.50;;
67049;SDS011;53955;52.442;13.284;2022-07-23T14:02:43;6.60;;;2.80;;
67049;SDS011;53955;52.442;13.284;2022-07-23T14:05:10;4.93;;;2.17;;
67049;SDS011;53955;52.442;13.284;2022-07-23T14:07:37;3.75;;;2.20;;
67049;SDS011;53955;52.442;13.284;2022-07-23T14:10:05;4.78;;;2.13;;
67049;SDS011;53955;52.442;13.284;2022-07-23T14:12:33;3.45;;;1.92;;
67049;SDS011;53955;52.442;13.284;2022-07-23T14:15:02;2.30;;;1.70;;
67049;SDS011;53955;52.442;13.284;2022-07-23T14:17:29;3.70;;;1.83;;
67049;SDS011;53955;52.442;13.284;2022-07-23T14:19:56;3.22;;;1.90;;
67049;SDS011;53955;52.442;13.284;2022-07-23T14:22:23;2.88;;;1.60;;
67049;SDS011;53955;52.442;13.284;2022-07-23T14:24:49;4.47;;;2.05;;
67049;SDS011;53955;52.442;13.284;2022-07-23T14:27:16;2.95;;;1.50;;
67049;SDS011;53955;52.442;13.284;2022-07-23T14:29:43;4.70;;;1.50;;
67049;SDS011;53955;52.442;13.284;2022-07-23T14:32:11;2.97;;;1.70;;
67049;SDS011;53955;52.442;13.284;2022-07-23T14:34:37;4.60;;;1.70;;
67049;SDS011;53955;52.442;13.284;2022-07-23T14:37:04;3.00;;;1.60;;
67049;SDS011;53955;52.442;13.284;2022-07-23T14:39:31;4.95;;;1.83;;
67049;SDS011;53955;52.442;13.284;2022-07-23T14:41:58;4.50;;;1.75;;
67049;SDS011;53955;52.442;13.284;2022-07-23T14:44:24;2.58;;;1.60;;
67049;SDS011;53955;52.442;13.284;2022-07-23T14:46:51;5.20;;;1.73;;
67049;SDS011;53955;52.442;13.284;2022-07-23T14:49:20;4.00;;;1.83;;
67049;SDS011;53955;52.442;13.284;2022-07-23T14:51:47;3.05;;;1.40;;
67049;SDS011;53955;52.442;13.284;2022-07-23T14:54:14;3.05;;;1.48;;
67049;SDS011;53955;52.442;13.284;2022-07-23T14:56:40;3.63;;;1.75;;
67049;SDS011;53955;52.442;13.284;2022-07-23T14:59:07;6.45;;;1.80;;